Latest Weather Observations for Mudgee

IDN60801

Issued at 10:03 pm EST Sunday 25 September 2016 (issued every 30 minutes, with the page automatically refreshed every 10 minutes)

About weather observations | Map of weather stations | Latest weather observations for NSW | Other Formats
Station Details ID: 062101 Name: MUDGEE AIRPORT AWS Lat: -32.56 Lon: 149.61 Height: 471.0 m
Data from the previous 72 hours. | See also: Recent months at Mudgee
Date/Time
EST
Temp
°C
App
Temp
°C
Dew
Point
°C
Rel
Hum
%
Delta-T
°C
Wind Press
QNH
hPa
Press
MSL
hPa
Rain since
9am
mm
Dir  Spd
km/h
Gust
km/h
Spd
kts
Gust
kts
25/10:00pm 11.5 9.0 8.0 79 1.8 W 11 17 6 9 1013.7 1013.4 0.0
25/09:30pm 11.7 8.8 8.2 79 1.8 WNW 13 20 7 11 1013.6 1013.3 0.0
25/09:00pm 11.5 9.7 8.0 79 1.8 WSW 7 13 4 7 1013.2 1012.9 0.0
25/08:30pm 11.9 9.8 8.4 79 1.8 SSW 9 15 5 8 1012.7 1012.4 0.0
25/08:00pm 11.3 10.4 7.6 78 1.8 SSW 2 6 1 3 1012.2 1012.0 0.0
25/07:30pm 12.3 9.7 7.8 74 2.3 WSW 11 15 6 8 1012.0 1011.8 0.0
25/07:00pm 13.0 9.3 8.1 72 2.5 SW 17 22 9 12 1011.4 1011.1 0.0
25/06:30pm 13.7 10.3 9.0 73 2.4 SW 17 22 9 12 1010.9 1010.6 0.0
25/06:00pm 13.5 9.8 9.4 76 2.1 WSW 19 24 10 13 1010.5 1010.2 0.0
25/05:30pm 15.1 11.1 9.0 67 3.2 WSW 20 26 11 14 1010.2 1010.0 0.0
25/05:00pm 15.7 11.6 10.0 69 3.1 SW 22 30 12 16 1010.0 1009.7 0.0
25/04:30pm 15.9 12.2 11.5 75 2.4 W 22 32 12 17 1009.5 1009.2 0.0
25/04:00pm 16.0 11.4 9.7 66 3.4 WSW 24 32 13 17 1009.2 1008.9 0.0
25/03:30pm 15.5 11.0 11.3 76 2.3 WSW 26 33 14 18 1009.1 1008.8 0.0
25/03:00pm 16.3 11.7 9.7 65 3.5 W 24 33 13 18 1008.7 1008.4 0.0
25/02:30pm 16.5 13.1 10.4 67 3.3 W 19 26 10 14 1008.7 1008.4 0.0
25/02:00pm 14.9 10.4 9.9 72 2.7 WSW 24 32 13 17 1008.8 1008.5 0.0
25/01:30pm 15.6 11.8 9.9 69 3.0 W 20 30 11 16 1008.5 1008.2 0.0
25/01:00pm 15.6 10.9 10.8 73 2.6 WSW 26 37 14 20 1008.6 1008.3 0.0
25/12:30pm 14.9 11.6 9.7 71 2.8 WSW 17 24 9 13 1008.6 1008.3 0.0
25/12:00pm 15.6 12.6 10.6 72 2.7 W 17 24 9 13 1008.6 1008.3 0.0
25/11:30am 14.9 11.5 10.5 75 2.4 W 19 24 10 13 1008.8 1008.5 0.0
25/11:00am 14.6 12.9 9.8 73 2.6 WNW 9 15 5 8 1008.7 1008.4 0.0
25/10:30am 13.8 10.7 10.2 79 1.9 W 17 22 9 12 1008.8 1008.5 0.0
25/10:18am 13.6 9.7 9.3 75 2.2 W 20 26 11 14 1008.8 1008.5 0.0
25/10:07am 13.9 11.6 10.3 79 1.9 WNW 13 19 7 10 1008.8 1008.5 0.0
25/10:00am 14.4 13.1 11.2 81 1.7 NW 9 19 5 10 1008.7 1008.4 0.0
25/09:41am 13.4 12.3 9.8 79 1.9 WNW 6 11 3 6 1008.9 1008.6 0.0
25/09:30am 13.3 12.6 11.5 89 1.0 N 6 9 3 5 1009.0 1008.7 0.0
25/09:23am 13.0 12.1 11.4 90 0.9 NNE 7 11 4 6 1009.1 1008.8 0.0
25/09:00am 12.1 12.3 11.8 98 0.2 NE 2 7 1 4 1009.3 1009.0 9.4
25/08:30am 11.5 10.6 11.2 98 0.2 NW 7 11 4 6 1009.5 1009.2 9.4
25/08:00am 11.1 9.3 10.8 98 0.2 W 11 15 6 8 1009.5 1009.2 9.4
25/07:30am 10.9 8.6 10.6 98 0.2 W 13 17 7 9 1009.4 1009.1 8.8
25/07:00am 10.8 9.7 10.6 99 0.1 N 7 9 4 5 1009.3 1009.0 7.2
25/06:30am 10.8 9.7 10.6 99 0.1 N 7 9 4 5 1009.0 1008.7 6.2
25/06:00am 10.8 9.9 10.6 99 0.1 N 6 7 3 4 1008.7 1008.4 5.6
25/05:30am 10.9 11.1 10.6 98 0.2 CALM 0 6 0 3 1008.4 1008.0 4.8
25/05:00am 10.9 11.1 10.6 98 0.2 CALM 0 0 0 0 1008.5 1008.2 3.6
25/04:30am 11.1 11.4 10.8 98 0.2 CALM 0 0 0 0 1008.2 1007.8 2.8
25/04:00am 11.2 11.1 10.9 98 0.2 NNE 2 6 1 3 1008.2 1007.8 1.6
25/03:30am 11.3 10.5 11.0 98 0.2 NE 6 7 3 4 1008.0 1007.7 1.4
25/03:00am 11.4 10.6 11.1 98 0.2 NE 6 7 3 4 1008.5 1008.2 1.4
25/02:30am 11.8 10.9 11.5 98 0.2 WNW 7 9 4 5 1008.7 1008.4 1.2
25/02:00am 12.1 10.3 10.8 92 0.7 NW 11 15 6 8 1008.9 1008.6 0.6
25/01:30am 12.6 10.9 11.3 92 0.7 NNW 11 15 6 8 1009.2 1008.9 0.0
25/01:00am 12.3 11.0 11.4 94 0.5 N 9 13 5 7 1009.2 1008.9 0.0
25/12:30am 12.7 12.0 12.1 96 0.3 ESE 7 11 4 6 1009.2 1008.9 0.0
25/12:00am 12.5 11.8 11.9 96 0.3 NNE 7 9 4 5 1009.7 1009.4 0.0
 
Date/Time
EST
Temp
°C
App
Temp
°C
Dew
Point
°C
Rel
Hum
%
Delta-T
°C
Wind Press
QNH
hPa
Press
MSL
hPa
Rain since
9am
mm
Dir  Spd
km/h
Gust
km/h
Spd
kts
Gust
kts
24/11:30pm 13.6 12.6 10.4 81 1.7 NE 6 7 3 4 1009.7 1009.4 0.0
24/11:00pm 12.8 12.2 12.2 96 0.3 NNE 7 9 4 5 1010.1 1009.8 0.0
24/10:30pm 12.6 11.6 12.3 98 0.2 NNE 9 9 5 5 1009.9 1009.6 0.0
24/10:00pm 12.7 11.9 11.6 93 0.6 N 7 9 4 5 1010.0 1009.7 0.0
24/09:30pm 12.8 11.6 11.5 92 0.7 NNE 9 9 5 5 1010.1 1009.8 0.0
24/09:00pm 12.8 11.9 11.4 91 0.8 N 7 9 4 5 1010.4 1010.1 0.0
24/08:30pm 13.9 12.8 10.5 80 1.8 N 7 7 4 4 1010.2 1010.0 0.0
24/08:00pm 14.6 14.7 10.2 75 2.4 CALM 0 0 0 0 1010.5 1010.2 0.0
24/07:30pm 14.8 13.5 10.0 73 2.6 W 7 7 4 4 1010.6 1010.3 0.0
24/07:00pm 14.9 13.6 10.1 73 2.6 WNW 7 9 4 5 1010.2 1010.0 0.0
24/06:30pm 15.3 13.8 10.5 73 2.6 W 9 13 5 7 1010.0 1009.7 0.0
24/06:00pm 16.2 13.8 10.1 67 3.3 WNW 13 17 7 9 1009.6 1009.3 0.0
24/05:30pm 17.4 15.8 10.3 63 3.9 NNW 9 11 5 6 1009.6 1009.3 0.0
24/05:00pm 18.4 16.3 9.7 57 4.7 NNW 11 13 6 7 1009.3 1009.0 0.0
24/04:30pm 19.5 16.5 9.4 52 5.5 NW 15 20 8 11 1009.4 1009.1 0.0
24/04:00pm 19.4 17.3 9.6 53 5.3 NNW 11 20 6 11 1009.4 1009.1 0.0
24/03:30pm 18.7 15.2 8.7 52 5.3 NW 17 20 9 11 1009.5 1009.2 0.0
24/03:00pm 19.6 16.3 9.5 52 5.5 NW 17 24 9 13 1009.2 1008.9 0.0
24/02:30pm 19.6 16.0 10.0 54 5.3 NNW 19 26 10 14 1009.3 1009.0 0.0
24/02:00pm 19.4 15.7 10.1 55 5.1 NW 20 28 11 15 1009.8 1009.5 0.0
24/01:30pm 18.5 15.0 10.3 59 4.5 NNW 19 28 10 15 1010.7 1010.4 0.0
24/01:00pm 18.0 15.6 9.9 59 4.4 NNW 13 19 7 10 1010.9 1010.6 0.0
24/12:30pm 18.6 16.2 9.9 57 4.7 NNW 13 24 7 13 1011.2 1010.9 0.0
24/12:00pm 17.9 15.0 9.8 59 4.4 NW 15 20 8 11 1011.5 1011.2 0.0
24/11:30am 18.2 16.1 11.0 63 4.0 NNW 13 22 7 12 1011.8 1011.5 0.0
24/11:00am 17.2 14.7 11.2 68 3.3 NW 15 20 8 11 1012.5 1012.3 0.0
24/10:30am 16.8 15.7 12.1 74 2.6 NNW 9 15 5 8 1013.1 1012.8 0.0
24/10:00am 16.3 16.0 13.4 83 1.7 NW 7 11 4 6 1013.4 1013.1 0.0
24/09:30am 14.6 15.2 13.0 90 0.9 W 2 11 1 6 1013.6 1013.3 0.0
24/09:00am 12.9 13.7 12.6 98 0.2 CALM 0 6 0 3 1013.9 1013.7 0.0
24/08:43am 11.9 12.0 11.6 98 0.2 S 2 6 1 3 1013.9 1013.7 0.0
24/08:30am 11.2 11.5 10.9 98 0.2 CALM 0 4 0 2 1014.0 1013.8 0.0
24/08:00am 9.6 8.4 9.5 99 0.1 SW 6 7 3 4 1014.0 1013.8 0.0
24/07:30am 8.4 8.0 8.3 99 0.0 CALM 0 0 0 0 1014.1 1013.9 0.0
24/07:00am 6.6 5.8 6.5 99 0.0 CALM 0 0 0 0 1013.9 1013.7 0.0
24/06:30am 5.7 4.7 5.6 99 0.0 CALM 0 0 0 0 1013.4 1013.1 0.0
24/06:00am 5.2 3.7 5.1 99 0.0 NW 2 9 1 5 1013.2 1012.9 0.0
24/05:36am 5.9 4.9 5.8 99 0.0 CALM 0 4 0 2 1012.9 1012.6 0.0
24/05:30am 5.8 4.4 5.7 99 0.0 SSW 2 6 1 3 1012.8 1012.5 0.0
24/05:03am 5.9 3.8 5.8 99 0.0 NE 6 9 3 5 1012.5 1012.3 0.0
24/05:00am 6.0 3.7 5.9 99 0.0 NE 7 9 4 5 1012.4 1012.2 0.0
24/04:30am 6.0 5.0 5.7 98 0.1 CALM 0 0 0 0 1012.4 1012.2 0.0
24/04:28am 5.9 4.9 5.6 98 0.1 CALM 0 0 0 0 1012.4 1012.2 0.0
24/04:00am 6.7 5.9 6.4 98 0.1 CALM 0 0 0 0 1012.2 1012.0 0.0
24/03:30am 6.8 6.0 6.5 98 0.1 CALM 0 0 0 0 1012.3 1012.1 0.0
24/03:00am 6.7 5.9 6.4 98 0.1 CALM 0 2 0 1 1012.2 1012.0 0.0
24/02:30am 7.9 6.2 7.6 98 0.1 ESE 6 7 3 4 1012.3 1012.1 0.0
24/02:00am 7.6 5.3 7.3 98 0.1 NNE 9 11 5 6 1012.5 1012.3 0.0
24/01:30am 8.2 6.4 7.9 98 0.1 NE 7 9 4 5 1012.7 1012.4 0.0
24/01:00am 8.1 6.3 7.8 98 0.1 NNE 7 9 4 5 1012.7 1012.4 0.0
24/12:30am 8.4 6.6 8.1 98 0.1 NE 7 9 4 5 1012.8 1012.5 0.0
24/12:00am 9.3 7.0 9.0 98 0.2 NE 11 17 6 9 1012.8 1012.5 0.0
 
Date/Time
EST
Temp
°C
App
Temp
°C
Dew
Point
°C
Rel
Hum
%
Delta-T
°C
Wind Press
QNH
hPa
Press
MSL
hPa
Rain since
9am
mm
Dir  Spd
km/h
Gust
km/h
Spd
kts
Gust
kts
23/11:30pm 9.2 7.3 8.9 98 0.2 NE 9 11 5 6 1012.9 1012.6 0.0
23/11:00pm 9.0 6.6 8.7 98 0.2 NNE 11 13 6 7 1013.1 1012.8 0.0
23/10:30pm 9.6 7.8 9.3 98 0.2 NNE 9 9 5 5 1013.0 1012.7 0.0
23/10:00pm 11.0 9.8 10.4 96 0.3 NNE 7 9 4 5 1013.1 1012.8 0.0
23/09:30pm 11.4 10.0 10.8 96 0.3 N 9 11 5 6 1013.1 1012.8 0.0
23/09:00pm 11.7 9.9 10.9 95 0.4 NNW 11 13 6 7 1013.2 1012.9 0.0
23/08:30pm 12.0 9.7 10.6 91 0.7 NNW 13 15 7 8 1013.2 1012.9 0.0
23/08:00pm 12.7 11.4 11.1 90 0.9 NNE 9 11 5 6 1013.2 1012.9 0.0
23/07:30pm 13.0 11.5 10.5 85 1.3 NNW 9 11 5 6 1012.8 1012.5 0.0
23/07:00pm 14.5 13.7 10.9 79 2.0 NW 6 7 3 4 1012.4 1012.2 0.0
23/06:30pm 15.1 13.7 10.9 76 2.3 WNW 9 13 5 7 1012.4 1012.2 0.0
23/06:00pm 16.0 13.8 10.7 71 2.9 WNW 13 17 7 9 1012.1 1011.9 0.0
23/05:30pm 16.9 15.1 11.0 68 3.2 WNW 11 15 6 8 1011.9 1011.6 0.0
23/05:00pm 17.7 15.2 11.0 65 3.7 W 15 20 8 11 1011.4 1011.1 0.0
23/04:30pm 18.9 16.9 10.2 57 4.8 WNW 11 17 6 9 1011.2 1010.9 0.0
23/04:00pm 18.2 16.8 11.0 63 4.0 N 9 11 5 6 1011.1 1010.8 0.0
23/03:30pm 17.6 15.8 10.9 65 3.7 N 11 15 6 8 1011.1 1010.8 0.0
23/03:00pm 17.8 16.4 10.9 64 3.8 N 9 15 5 8 1011.4 1011.1 0.0
23/02:30pm 18.8 17.8 10.9 60 4.4 NW 7 9 4 5 1011.6 1011.3 0.0
23/02:00pm 19.3 16.4 11.1 59 4.6 NNW 17 33 9 18 1011.9 1011.6 0.0
23/01:30pm 19.6 18.3 9.8 53 5.4 NNE 7 15 4 8 1012.2 1012.0 0.0
23/01:00pm 19.1 18.4 10.1 56 4.9 WNW 4 9 2 5 1012.4 1012.2 0.0
23/12:30pm 18.2 15.6 9.3 56 4.8 NW 13 19 7 10 1012.5 1012.3 0.0
23/12:00pm 18.5 17.3 9.6 56 4.8 NE 6 11 3 6 1012.8 1012.5 0.0
23/11:30am 17.5 15.9 8.1 54 4.9 SSW 6 20 3 11 1013.2 1012.9 0.0
23/11:00am 17.2 15.2 8.6 57 4.5 ESE 9 19 5 10 1013.6 1013.3 0.0
23/10:30am 16.4 13.4 7.9 57 4.4 SSW 13 22 7 12 1013.8 1013.5 0.0
23/10:00am 16.0 13.1 8.2 60 4.0 S 13 17 7 9 1013.9 1013.7 0.0
23/09:30am 15.1 13.3 8.1 63 3.6 SSE 7 13 4 7 1014.0 1013.8 0.0
23/09:00am 14.2 12.1 8.2 67 3.1 SSE 9 15 5 8 1014.1 1013.9 0.0
23/08:30am 13.2 11.6 8.1 71 2.6 WSW 6 11 3 6 1014.3 1014.1 0.0
23/08:00am 12.5 11.5 9.0 79 1.8 W 4 7 2 4 1014.1 1013.9 0.0
23/07:30am 11.5 8.7 8.7 83 1.4 W 13 15 7 8 1014.2 1014.0 0.0
23/07:00am 10.5 8.6 8.9 90 0.8 W 9 13 5 7 1014.3 1014.1 0.0
23/06:30am 8.9 6.1 8.6 98 0.1 W 13 17 7 9 1014.2 1014.0 0.0
23/06:00am 8.6 5.0 8.3 98 0.1 W 17 19 9 10 1013.9 1013.7 0.0
23/05:30am 8.2 5.2 7.9 98 0.1 WNW 13 15 7 8 1013.6 1013.3 0.0
23/05:00am 8.5 5.2 8.2 98 0.1 W 15 15 8 8 1013.3 1013.0 0.0
23/04:30am 8.7 5.8 8.3 97 0.2 W 13 15 7 8 1012.8 1012.5 0.0
23/04:00am 9.3 5.8 8.7 96 0.3 WSW 17 19 9 10 1012.5 1012.3 0.0
23/03:30am 9.6 6.5 8.8 95 0.4 W 15 19 8 10 1012.5 1012.3 0.0
23/03:00am 9.5 6.7 8.7 95 0.4 W 13 15 7 8 1012.3 1012.1 0.0
23/02:30am 10.5 7.4 8.8 89 0.9 W 15 17 8 9 1012.5 1012.3 0.0
23/02:07am 11.1 8.0 9.0 87 1.1 WSW 15 19 8 10 1012.8 1012.5 0.0
23/02:00am 11.1 8.0 9.0 87 1.1 WSW 15 19 8 10 1012.8 1012.5 0.0
23/01:30am 11.3 8.6 8.9 85 1.2 WSW 13 15 7 8 1013.2 1012.9 0.0
23/01:00am 11.7 8.5 8.6 81 1.6 WSW 15 20 8 11 1013.3 1013.0 0.0
23/12:30am 11.7 8.2 8.6 81 1.6 W 17 24 9 13 1013.7 1013.4 0.0
23/12:02am 11.7 8.9 8.6 81 1.6 W 13 17 7 9 1013.8 1013.5 0.0
23/12:00am 11.6 8.8 8.6 82 1.5 W 13 17 7 9 1013.8 1013.5 0.0
 
Date/Time
EST
Temp
°C
App
Temp
°C
Dew
Point
°C
Rel
Hum
%
Delta-T
°C
Wind Press
QNH
hPa
Press
MSL
hPa
Rain since
9am
mm
Dir  Spd
km/h
Gust
km/h
Spd
kts
Gust
kts
22/11:30pm 11.7 8.1 8.4 80 1.7 WSW 17 24 9 13 1013.8 1013.5 0.0
22/11:00pm 11.9 8.3 8.2 78 1.9 WSW 17 24 9 13 1013.9 1013.7 0.0
22/10:30pm 12.0 7.8 8.3 78 1.9 WSW 20 26 11 14 1014.1 1013.9 0.0

Other Formats:

Comma delimited format used in spreadsheet applications
http://www.bom.gov.au/fwo/IDN60801/IDN60801.94727.axf

JavaScript Object Notation format (JSON) in row-major order
http://www.bom.gov.au/fwo/IDN60801/IDN60801.94727.json